createdAt,value
2019-01-08T00:01:38.660Z,10.60
2019-01-08T00:03:49.481Z,10.20
2019-01-08T00:06:00.293Z,10.87
2019-01-08T00:08:11.112Z,10.53
2019-01-08T00:10:21.901Z,11.13
2019-01-08T00:12:32.729Z,10.93
2019-01-08T00:14:43.531Z,10.93
2019-01-08T00:16:54.347Z,10.40
2019-01-08T00:19:05.157Z,10.57
2019-01-08T00:21:15.954Z,11.30
2019-01-08T00:23:26.775Z,10.63
2019-01-08T00:25:37.584Z,10.47
2019-01-08T00:27:48.402Z,10.50
2019-01-08T00:29:59.295Z,10.47
2019-01-08T00:32:10.101Z,9.77
2019-01-08T00:34:20.926Z,10.77
2019-01-08T00:36:31.741Z,11.10
2019-01-08T00:38:42.692Z,10.50
2019-01-08T00:40:53.490Z,9.73
2019-01-08T00:43:04.288Z,10.23
2019-01-08T00:45:15.132Z,10.10
2019-01-08T00:47:26.007Z,8.93
2019-01-08T00:49:36.864Z,9.63
2019-01-08T00:51:47.667Z,8.87
2019-01-08T00:53:58.498Z,9.00
2019-01-08T00:56:09.299Z,9.17
2019-01-08T00:58:20.201Z,8.70
2019-01-08T01:00:31.017Z,9.77
2019-01-08T01:02:41.854Z,8.90
2019-01-08T01:04:52.623Z,8.60
2019-01-08T01:07:03.434Z,9.23
2019-01-08T01:09:14.221Z,8.53
2019-01-08T01:11:25.237Z,8.60
2019-01-08T01:13:36.028Z,8.63
2019-01-08T01:15:46.861Z,8.07
2019-01-08T01:17:57.663Z,8.07
2019-01-08T01:20:08.504Z,9.17
2019-01-08T01:22:19.301Z,8.17
2019-01-08T01:24:30.603Z,7.63
2019-01-08T01:26:41.445Z,8.30
2019-01-08T01:28:59.676Z,7.33
2019-01-08T01:31:04.986Z,7.70
2019-01-08T01:33:15.789Z,7.20
2019-01-08T01:35:26.594Z,7.57
2019-01-08T01:37:37.401Z,7.93
2019-01-08T01:39:48.198Z,8.37
2019-01-08T01:41:59.022Z,8.37
2019-01-08T01:44:09.849Z,8.03
2019-01-08T01:46:20.658Z,7.43
2019-01-08T01:48:31.573Z,8.20
2019-01-08T01:50:42.392Z,7.57
2019-01-08T01:52:53.217Z,7.60
2019-01-08T01:58:01.766Z,7.23
2019-01-08T02:00:14.544Z,7.90
2019-01-08T02:02:25.361Z,7.27
2019-01-08T02:04:56.057Z,8.10
2019-01-08T02:07:06.884Z,7.67
2019-01-08T02:09:17.775Z,8.03
2019-01-08T02:11:49.419Z,7.93
2019-01-08T02:14:00.224Z,7.60
2019-01-08T02:16:11.016Z,8.13
2019-01-08T02:18:21.812Z,7.80
2019-01-08T02:20:32.622Z,7.93
2019-01-08T02:34:11.443Z,7.40
2019-01-08T02:36:22.270Z,7.03
2019-01-08T02:38:33.226Z,6.50
2019-01-08T02:40:44.046Z,8.27
2019-01-08T02:42:54.874Z,7.13
2019-01-08T02:45:05.771Z,7.10
2019-01-08T02:47:16.660Z,6.27
2019-01-08T02:49:27.470Z,6.63
2019-01-08T02:51:38.297Z,6.80
2019-01-08T02:53:49.080Z,6.47
2019-01-08T02:55:59.895Z,7.13
2019-01-08T02:58:10.691Z,7.07
2019-01-08T03:00:21.506Z,6.47
2019-01-08T03:02:32.350Z,7.07
2019-01-08T03:04:43.177Z,6.07
2019-01-08T03:06:53.961Z,6.30
2019-01-08T03:09:26.538Z,6.60
2019-01-08T03:11:37.356Z,5.87
2019-01-08T03:13:48.156Z,5.70
2019-01-08T03:15:59.057Z,5.70
2019-01-08T03:18:09.874Z,5.87
2019-01-08T03:20:20.670Z,5.53
2019-01-08T03:22:31.476Z,5.67
2019-01-08T03:24:42.289Z,5.77
2019-01-08T03:26:53.194Z,5.90
2019-01-08T03:29:03.995Z,6.03
2019-01-08T03:31:14.803Z,4.97
2019-01-08T03:33:25.589Z,5.27
2019-01-08T03:35:36.376Z,4.53
2019-01-08T03:37:47.213Z,4.70
2019-01-08T03:39:58.000Z,4.87
2019-01-08T03:42:08.812Z,4.60
2019-01-08T03:44:19.620Z,4.63
2019-01-08T03:46:30.439Z,4.33
2019-01-08T03:48:41.236Z,3.80
2019-01-08T03:50:52.052Z,4.20
2019-01-08T03:53:02.879Z,3.53
2019-01-08T03:55:13.674Z,3.80
2019-01-08T03:57:24.484Z,3.50
2019-01-08T03:59:41.877Z,3.00
2019-01-08T04:01:47.982Z,2.40
2019-01-08T04:03:58.785Z,2.63
2019-01-08T04:06:09.687Z,2.50
2019-01-08T04:08:20.498Z,2.50
2019-01-08T04:10:31.284Z,2.13
2019-01-08T04:12:42.111Z,1.90
2019-01-08T04:14:52.909Z,1.80
2019-01-08T04:17:03.719Z,1.60
2019-01-08T04:19:14.527Z,1.70
2019-01-08T04:21:25.314Z,1.67
2019-01-08T04:23:36.150Z,1.37
2019-01-08T04:25:46.960Z,1.37
2019-01-08T04:27:57.777Z,1.27
2019-01-08T04:30:08.699Z,1.67
2019-01-08T04:32:19.496Z,1.20
2019-01-08T04:34:30.303Z,2.00
2019-01-08T04:36:41.099Z,1.10
2019-01-08T04:38:51.914Z,1.23
2019-01-08T04:41:02.703Z,0.70
2019-01-08T04:43:13.500Z,1.20
2019-01-08T04:45:24.320Z,0.87
2019-01-08T04:47:35.130Z,1.10
2019-01-08T04:49:45.936Z,0.90
2019-01-08T04:51:56.734Z,0.90
2019-01-08T04:54:07.549Z,0.90
2019-01-08T04:56:18.346Z,0.90
2019-01-08T04:58:29.140Z,1.10
2019-01-08T05:00:40.053Z,0.90
2019-01-08T05:02:50.846Z,0.70
2019-01-08T05:05:01.658Z,0.60
2019-01-08T05:09:31.371Z,0.90
2019-01-08T05:11:42.166Z,0.80
2019-01-08T05:13:52.974Z,0.90
2019-01-08T05:16:03.808Z,0.70
2019-01-08T05:18:14.612Z,0.83
2019-01-08T05:20:25.431Z,0.90
2019-01-08T05:22:36.230Z,0.93
2019-01-08T05:24:47.013Z,1.17
2019-01-08T05:26:57.848Z,1.20
2019-01-08T05:29:08.648Z,0.70
2019-01-08T05:31:19.466Z,0.97
2019-01-08T05:33:30.278Z,1.20
2019-01-08T05:35:41.100Z,0.90
2019-01-08T05:37:51.934Z,0.80
2019-01-08T05:40:44.397Z,1.23
2019-01-08T05:42:55.194Z,1.10
2019-01-08T05:45:06.002Z,0.90
2019-01-08T05:47:16.806Z,1.10
2019-01-08T05:49:27.621Z,1.30
2019-01-08T05:51:38.444Z,0.97
2019-01-08T05:53:49.231Z,1.20
2019-01-08T05:56:00.042Z,1.40
2019-01-08T05:58:10.863Z,1.30
2019-01-08T06:00:21.665Z,1.10
2019-01-08T06:02:32.481Z,1.10
2019-01-08T06:04:43.285Z,0.97
2019-01-08T06:06:54.070Z,1.27
2019-01-08T06:09:04.895Z,1.27
2019-01-08T06:11:15.685Z,1.30
2019-01-08T06:13:26.521Z,1.20
2019-01-08T06:15:37.332Z,1.37
2019-01-08T06:17:48.125Z,1.27
2019-01-08T06:19:58.955Z,1.53
2019-01-08T06:22:09.754Z,1.57
2019-01-08T06:24:20.583Z,1.40
2019-01-08T06:26:31.398Z,1.10
2019-01-08T06:28:42.215Z,1.10
2019-01-08T06:30:53.014Z,1.63
2019-01-08T06:33:03.806Z,1.10
2019-01-08T06:35:14.611Z,1.40
2019-01-08T06:37:25.424Z,1.60
2019-01-08T06:39:36.221Z,1.50
2019-01-08T06:41:47.006Z,1.70
2019-01-08T06:43:57.833Z,1.60
2019-01-08T06:46:08.649Z,1.50
2019-01-08T06:48:19.456Z,1.70
2019-01-08T06:50:30.366Z,1.40
2019-01-08T06:52:41.155Z,1.30
2019-01-08T06:54:52.071Z,1.90
2019-01-08T06:57:02.853Z,1.50
2019-01-08T06:59:13.654Z,1.40
2019-01-08T07:01:24.469Z,1.40
2019-01-08T07:03:35.289Z,1.63
2019-01-08T07:05:46.107Z,1.50
2019-01-08T07:07:56.921Z,1.50
2019-01-08T07:10:07.745Z,1.40
2019-01-08T07:12:18.575Z,1.80
2019-01-08T07:14:29.380Z,1.53
2019-01-08T07:16:40.191Z,1.63
2019-01-08T07:18:50.977Z,1.90
2019-01-08T07:21:01.761Z,1.77
2019-01-08T07:23:12.562Z,1.93
2019-01-08T07:25:23.378Z,1.67
2019-01-08T07:27:34.202Z,2.03
2019-01-08T07:29:45.002Z,1.80
2019-01-08T07:31:55.806Z,1.83
2019-01-08T07:34:06.621Z,1.87
2019-01-08T07:36:17.414Z,1.70
2019-01-08T07:38:28.228Z,1.97
2019-01-08T07:40:39.027Z,2.27
2019-01-08T07:42:49.853Z,1.87
2019-01-08T07:45:00.656Z,2.23
2019-01-08T07:47:11.474Z,2.00
2019-01-08T07:49:22.287Z,1.90
2019-01-08T07:51:33.099Z,2.00
2019-01-08T07:53:43.913Z,1.70
2019-01-08T07:55:54.735Z,2.13
2019-01-08T07:58:05.561Z,2.47
2019-01-08T08:00:16.384Z,2.43
2019-01-08T08:02:27.227Z,2.77
2019-01-08T08:04:38.022Z,2.70
2019-01-08T08:06:48.817Z,3.17
2019-01-08T08:08:59.630Z,2.90
2019-01-08T08:11:10.422Z,3.50
2019-01-08T08:13:21.254Z,3.40
2019-01-08T08:15:32.074Z,4.10
2019-01-08T08:17:42.909Z,3.63
2019-01-08T08:19:53.725Z,4.20
2019-01-08T08:22:04.518Z,3.87
2019-01-08T08:24:15.366Z,3.97
2019-01-08T08:26:26.200Z,4.00
2019-01-08T08:28:37.004Z,4.40
2019-01-08T08:30:47.804Z,3.37
2019-01-08T08:32:58.591Z,3.83
2019-01-08T08:35:09.427Z,3.97
2019-01-08T08:37:20.221Z,3.50
2019-01-08T08:39:31.043Z,3.70
2019-01-08T08:41:41.837Z,3.30
2019-01-08T08:43:52.661Z,3.80
2019-01-08T08:46:03.460Z,3.43
2019-01-08T08:48:14.273Z,3.40
2019-01-08T08:50:25.100Z,3.40
2019-01-08T08:52:35.910Z,3.37
2019-01-08T08:54:46.739Z,2.23
2019-01-08T08:56:57.538Z,2.40
2019-01-08T08:59:08.358Z,2.50
2019-01-08T09:01:19.210Z,2.03
2019-01-08T09:03:30.005Z,2.20
2019-01-08T09:05:40.839Z,1.90
2019-01-08T09:07:51.630Z,1.50
2019-01-08T09:10:44.130Z,1.87
2019-01-08T09:12:54.958Z,1.67
2019-01-08T09:15:05.864Z,1.37
2019-01-08T09:17:16.721Z,1.47
2019-01-08T09:19:27.533Z,1.87
2019-01-08T09:21:38.312Z,1.30
2019-01-08T09:23:49.102Z,1.13
2019-01-08T09:25:59.946Z,0.90
2019-01-08T09:28:10.851Z,1.10
2019-01-08T09:30:21.678Z,1.20
2019-01-08T09:32:32.463Z,1.33
2019-01-08T09:34:50.022Z,1.30
2019-01-08T09:37:00.856Z,1.63
2019-01-08T09:39:11.666Z,1.30
2019-01-08T09:41:22.504Z,1.80
2019-01-08T09:43:33.316Z,1.60
2019-01-08T09:45:44.225Z,1.93
2019-01-08T09:47:55.045Z,1.60
2019-01-08T09:50:47.511Z,1.80
2019-01-08T09:52:58.316Z,1.93
2019-01-08T09:55:09.107Z,2.10
2019-01-08T09:57:19.940Z,1.90
2019-01-08T09:59:30.748Z,1.90
2019-01-08T10:01:41.582Z,2.40
2019-01-08T10:03:52.385Z,2.10
2019-01-08T10:06:03.185Z,2.37
2019-01-08T10:08:14.006Z,2.33
2019-01-08T10:10:24.851Z,2.20
2019-01-08T10:12:35.729Z,1.63
2019-01-08T10:14:46.538Z,2.63
2019-01-08T10:16:57.353Z,2.03
2019-01-08T10:19:08.179Z,2.87
2019-01-08T10:21:18.983Z,2.50
2019-01-08T10:23:29.834Z,2.60
2019-01-08T10:25:40.644Z,2.47
2019-01-08T10:27:51.493Z,2.23
2019-01-08T10:30:24.063Z,2.50
2019-01-08T10:32:34.852Z,2.70
2019-01-08T10:34:45.668Z,2.13
2019-01-08T10:36:56.470Z,2.03
2019-01-08T10:39:07.296Z,2.13
2019-01-08T10:41:18.103Z,2.33
2019-01-08T10:43:28.924Z,2.30
2019-01-08T10:45:39.718Z,2.60
2019-01-08T10:47:50.514Z,2.60
2019-01-08T10:50:01.478Z,2.07
2019-01-08T10:52:12.293Z,2.73
2019-01-08T10:54:23.109Z,2.90
2019-01-08T10:56:33.913Z,2.57
2019-01-08T10:58:44.740Z,2.57
2019-01-08T11:00:55.566Z,3.00
2019-01-08T11:03:06.342Z,2.70
2019-01-08T11:05:17.168Z,2.90
2019-01-08T11:07:28.016Z,2.50
2019-01-08T11:09:38.928Z,3.30
2019-01-08T11:11:49.733Z,2.27
2019-01-08T11:14:00.540Z,2.33
2019-01-08T11:16:11.368Z,2.40
2019-01-08T11:18:22.174Z,2.80
2019-01-08T11:20:32.988Z,2.43
2019-01-08T11:22:43.791Z,2.97
2019-01-08T11:24:54.636Z,2.63
2019-01-08T11:27:05.445Z,3.00
2019-01-08T11:29:16.345Z,3.33
2019-01-08T11:31:27.167Z,2.80
2019-01-08T11:33:37.965Z,2.93
2019-01-08T11:35:48.792Z,2.60
2019-01-08T11:37:59.611Z,2.70
2019-01-08T11:40:10.419Z,2.70
2019-01-08T11:42:21.234Z,2.67
2019-01-08T11:44:32.020Z,3.17
2019-01-08T11:46:42.840Z,2.93
2019-01-08T11:48:53.743Z,2.07
2019-01-08T11:51:04.619Z,2.17
2019-01-08T11:53:15.424Z,2.40
2019-01-08T11:55:26.246Z,1.80
2019-01-08T11:57:37.057Z,1.80
2019-01-08T11:59:48.336Z,1.90
2019-01-08T12:04:22.911Z,1.80
2019-01-08T12:06:33.739Z,1.50
2019-01-08T12:08:44.566Z,2.30
2019-01-08T12:10:55.469Z,1.90
2019-01-08T12:13:06.291Z,1.90
2019-01-08T12:15:17.139Z,1.90
2019-01-08T12:17:27.912Z,2.07
2019-01-08T12:19:38.745Z,1.50
2019-01-08T12:21:49.589Z,1.77
2019-01-08T12:24:00.386Z,1.80
2019-01-08T12:26:11.181Z,1.60
2019-01-08T12:28:22.031Z,2.03
2019-01-08T12:30:32.849Z,1.90
2019-01-08T12:32:43.698Z,2.07
2019-01-08T12:34:54.493Z,1.60
2019-01-08T12:37:05.290Z,2.80
2019-01-08T12:39:16.140Z,1.67
2019-01-08T12:41:26.937Z,1.90
2019-01-08T12:43:37.784Z,2.10
2019-01-08T12:45:48.590Z,1.97
2019-01-08T12:47:59.392Z,2.50
2019-01-08T12:50:10.259Z,1.97
2019-01-08T12:52:21.052Z,1.60
2019-01-08T12:54:31.913Z,2.37
2019-01-08T12:56:42.681Z,1.70
2019-01-08T12:58:53.508Z,1.87
2019-01-08T13:01:04.326Z,2.10
2019-01-08T13:03:15.153Z,1.80
2019-01-08T13:05:25.957Z,2.17
2019-01-08T13:07:36.771Z,2.03
2019-01-08T13:09:47.614Z,2.17
2019-01-08T13:11:58.412Z,1.60
2019-01-08T13:14:09.225Z,1.90
2019-01-08T13:16:20.007Z,1.73
2019-01-08T13:18:30.817Z,2.23
2019-01-08T13:20:41.620Z,2.13
2019-01-08T13:22:52.410Z,1.90
2019-01-08T13:27:42.134Z,2.50
2019-01-08T13:29:52.985Z,2.00
2019-01-08T13:32:03.779Z,2.00
2019-01-08T13:34:14.597Z,1.97
2019-01-08T13:36:25.401Z,2.17
2019-01-08T13:38:36.208Z,2.30
2019-01-08T13:40:47.030Z,2.53
2019-01-08T13:42:57.820Z,2.50
2019-01-08T13:45:08.640Z,2.40
2019-01-08T13:47:19.452Z,2.53
2019-01-08T13:49:30.265Z,2.50
2019-01-08T13:51:41.083Z,2.03
2019-01-08T13:53:51.878Z,2.80
2019-01-08T13:56:02.824Z,2.30
2019-01-08T13:58:13.620Z,2.07
2019-01-08T14:00:24.413Z,2.40
2019-01-08T14:02:35.238Z,2.23
2019-01-08T14:04:46.051Z,2.10
2019-01-08T14:06:56.874Z,2.40
2019-01-08T14:09:07.686Z,2.50
2019-01-08T14:11:18.507Z,2.20
2019-01-08T14:13:29.330Z,2.37
2019-01-08T14:15:40.127Z,2.80
2019-01-08T14:17:50.975Z,2.47
2019-01-08T14:20:01.986Z,2.13
2019-01-08T14:22:12.794Z,2.10
2019-01-08T14:24:23.601Z,2.07
2019-01-08T14:26:34.408Z,2.90
2019-01-08T14:28:45.273Z,3.37
2019-01-08T14:30:56.074Z,2.40
2019-01-08T14:33:06.917Z,2.80
2019-01-08T14:35:17.721Z,2.50
2019-01-08T14:37:50.443Z,2.83
2019-01-08T14:42:53.597Z,2.53
2019-01-08T14:45:04.498Z,2.27
2019-01-08T14:47:17.387Z,2.23
2019-01-08T14:49:28.050Z,2.50
2019-01-08T14:51:38.841Z,2.27
2019-01-08T14:53:49.692Z,2.77
2019-01-08T14:56:00.498Z,2.17
2019-01-08T14:58:11.348Z,2.43
2019-01-08T15:00:22.242Z,2.37
2019-01-08T15:02:33.070Z,2.43
2019-01-08T15:04:43.940Z,2.57
2019-01-08T15:06:54.728Z,2.80
2019-01-08T15:09:05.667Z,2.40
2019-01-08T15:11:16.480Z,2.77
2019-01-08T15:13:27.272Z,2.20
2019-01-08T15:15:38.111Z,2.30
2019-01-08T15:17:48.923Z,2.20
2019-01-08T15:19:59.747Z,2.10
2019-01-08T15:22:10.578Z,2.60
2019-01-08T15:24:21.400Z,2.17
2019-01-08T15:26:32.208Z,2.10
2019-01-08T15:28:43.025Z,1.90
2019-01-08T15:30:53.852Z,2.83
2019-01-08T15:33:04.779Z,2.40
2019-01-08T15:35:15.594Z,2.33
2019-01-08T15:37:26.401Z,2.70
2019-01-08T15:39:37.248Z,2.83
2019-01-08T15:41:48.046Z,2.80
2019-01-08T15:43:58.866Z,2.63
2019-01-08T15:46:09.690Z,2.57
2019-01-08T15:48:20.529Z,3.00
2019-01-08T15:50:51.258Z,2.50
2019-01-08T15:53:02.074Z,3.07
2019-01-08T15:55:12.892Z,2.47
2019-01-08T15:57:23.757Z,2.43
2019-01-08T16:00:16.223Z,2.67
2019-01-08T16:02:27.056Z,2.53
2019-01-08T16:04:37.870Z,2.50
2019-01-08T16:06:48.802Z,2.10
2019-01-08T16:08:59.613Z,2.13
2019-01-08T16:11:10.451Z,2.30
2019-01-08T16:13:21.227Z,2.40
2019-01-08T16:15:32.030Z,2.50
2019-01-08T16:17:42.845Z,2.63
2019-01-08T16:19:53.647Z,2.60
2019-01-08T16:22:04.473Z,2.60
2019-01-08T16:24:15.257Z,2.60
2019-01-08T16:26:26.101Z,3.00
2019-01-08T16:28:37.000Z,2.37
2019-01-08T16:30:47.845Z,2.57
2019-01-08T16:32:58.666Z,2.50
2019-01-08T16:35:09.475Z,2.47
2019-01-08T16:37:20.335Z,2.30
2019-01-08T16:39:31.172Z,2.33
2019-01-08T16:41:41.954Z,2.60
2019-01-08T16:43:52.785Z,2.43
2019-01-08T16:46:03.597Z,2.30
2019-01-08T16:48:14.433Z,2.10
2019-01-08T16:50:25.332Z,2.17
2019-01-08T16:52:36.163Z,2.20
2019-01-08T16:54:46.960Z,2.50
2019-01-08T16:56:57.769Z,2.63
2019-01-08T16:59:08.607Z,2.00
2019-01-08T17:01:19.439Z,2.03
2019-01-08T17:03:30.273Z,2.30
2019-01-08T17:05:41.088Z,2.20
2019-01-08T17:07:51.929Z,2.13
2019-01-08T17:10:44.518Z,2.00
2019-01-08T17:12:55.359Z,1.90
2019-01-08T17:15:06.372Z,2.10
2019-01-08T17:17:17.177Z,2.73
2019-01-08T17:19:28.019Z,1.83
2019-01-08T17:21:38.827Z,2.47
2019-01-08T17:23:49.670Z,2.43
2019-01-08T17:26:00.489Z,2.27
2019-01-08T17:28:11.305Z,2.63
2019-01-08T17:30:22.171Z,2.20
2019-01-08T17:32:32.981Z,2.40
2019-01-08T17:34:43.832Z,1.93
2019-01-08T17:36:54.626Z,2.40
2019-01-08T17:39:05.570Z,2.20
2019-01-08T17:41:16.396Z,1.97
2019-01-08T17:43:33.422Z,2.60
2019-01-08T17:45:39.955Z,2.57
2019-01-08T17:47:50.770Z,2.43
2019-01-08T17:50:43.239Z,2.77
2019-01-08T17:52:54.062Z,2.40
2019-01-08T17:55:04.875Z,2.20
2019-01-08T17:57:15.681Z,2.07
2019-01-08T17:59:26.488Z,2.90
2019-01-08T18:02:18.955Z,1.87
2019-01-08T18:04:29.776Z,2.40
2019-01-08T18:06:40.615Z,2.33
2019-01-08T18:08:51.426Z,2.37
2019-01-08T18:11:02.300Z,2.53
2019-01-08T18:13:13.114Z,2.47
2019-01-08T18:15:24.009Z,2.60
2019-01-08T18:17:34.854Z,2.90
2019-01-08T18:19:45.666Z,2.50
2019-01-08T18:21:56.502Z,2.47
2019-01-08T18:24:07.334Z,2.57
2019-01-08T18:26:18.230Z,2.33
2019-01-08T18:28:29.172Z,2.10
2019-01-08T18:30:39.993Z,2.10
2019-01-08T18:32:50.822Z,2.17
2019-01-08T18:35:01.728Z,2.57
2019-01-08T18:37:12.549Z,2.60
2019-01-08T18:39:23.395Z,2.43
2019-01-08T18:41:34.354Z,2.43
2019-01-08T18:43:45.189Z,1.83
2019-01-08T18:45:56.117Z,2.07
2019-01-08T18:48:07.007Z,2.30
2019-01-08T18:50:17.797Z,2.00
2019-01-08T18:52:28.641Z,2.17
2019-01-08T18:54:39.469Z,2.40
2019-01-08T18:56:50.270Z,2.20
2019-01-08T18:59:01.163Z,3.17
2019-01-08T19:01:11.977Z,2.17
2019-01-08T19:03:22.877Z,2.83
2019-01-08T19:05:34.557Z,2.57
2019-01-08T19:07:46.590Z,2.43
2019-01-08T19:10:39.229Z,2.93
2019-01-08T19:12:50.063Z,3.10
2019-01-08T19:15:00.852Z,2.50
2019-01-08T19:17:11.667Z,2.23
2019-01-08T19:19:22.582Z,2.67
2019-01-08T19:21:33.400Z,2.47
2019-01-08T19:23:44.212Z,2.33
2019-01-08T19:25:55.062Z,2.43
2019-01-08T19:30:38.263Z,2.27
2019-01-08T19:32:49.128Z,2.67
2019-01-08T19:34:59.957Z,2.53
2019-01-08T19:37:10.783Z,2.17
2019-01-08T19:39:21.779Z,2.40
2019-01-08T19:41:32.649Z,2.20
2019-01-08T19:43:44.773Z,2.10
2019-01-08T19:45:56.200Z,2.70
2019-01-08T19:48:07.129Z,2.60
2019-01-08T19:52:40.360Z,2.60
2019-01-08T19:54:51.193Z,2.37
2019-01-08T19:57:02.046Z,2.27
2019-01-08T19:59:12.843Z,2.83
2019-01-08T20:01:23.671Z,2.40
2019-01-08T20:03:34.508Z,2.30
2019-01-08T20:05:45.344Z,2.90
2019-01-08T20:07:56.196Z,2.17
2019-01-08T20:10:07.111Z,2.60
2019-01-08T20:12:17.949Z,2.97
2019-01-08T20:14:28.870Z,2.60
2019-01-08T20:16:39.734Z,2.40
2019-01-08T20:18:50.544Z,2.37
2019-01-08T20:21:01.354Z,2.17
2019-01-08T20:23:12.267Z,2.17
2019-01-08T20:25:23.156Z,2.47
2019-01-08T20:27:33.941Z,2.70
2019-01-08T20:29:44.965Z,1.93
2019-01-08T20:31:55.736Z,2.27
2019-01-08T20:34:06.562Z,1.90
2019-01-08T20:36:17.499Z,2.10
2019-01-08T20:38:28.344Z,2.50
2019-01-08T20:40:39.167Z,1.63
2019-01-08T20:42:50.046Z,2.43
2019-01-08T20:45:00.845Z,2.00
2019-01-08T20:47:11.662Z,2.50
2019-01-08T20:49:22.585Z,1.70
2019-01-08T20:51:33.439Z,2.57
2019-01-08T20:53:44.277Z,2.00
2019-01-08T20:55:55.113Z,2.50
2019-01-08T20:58:05.949Z,2.27
2019-01-08T21:00:16.780Z,1.83
2019-01-08T21:02:27.593Z,2.67
2019-01-08T21:04:38.439Z,1.87
2019-01-08T21:06:49.235Z,2.10
2019-01-08T21:09:00.101Z,1.93
2019-01-08T21:11:10.976Z,1.83
2019-01-08T21:13:21.895Z,2.00
2019-01-08T21:15:32.737Z,1.73
2019-01-08T21:17:43.529Z,1.60
2019-01-08T21:19:54.397Z,1.50
2019-01-08T21:22:05.305Z,2.17
2019-01-08T21:24:16.175Z,1.77
2019-01-08T21:26:27.093Z,1.90
2019-01-08T21:28:37.949Z,1.83
2019-01-08T21:30:48.743Z,1.77
2019-01-08T21:32:59.590Z,1.67
2019-01-08T21:35:10.526Z,1.60
2019-01-08T21:37:21.358Z,1.60
2019-01-08T21:39:32.299Z,1.87
2019-01-08T21:41:43.124Z,1.90
2019-01-08T21:44:13.830Z,1.70
2019-01-08T21:46:24.665Z,1.80
2019-01-08T21:48:35.493Z,1.50
2019-01-08T21:50:46.311Z,2.10
2019-01-08T21:52:57.107Z,2.00
2019-01-08T21:55:07.961Z,1.60
2019-01-08T21:57:18.769Z,1.83
2019-01-08T21:59:29.596Z,1.80
2019-01-08T22:01:40.526Z,2.50
2019-01-08T22:03:51.426Z,1.63
2019-01-08T22:06:02.281Z,1.60
2019-01-08T22:08:13.080Z,1.73
2019-01-08T22:10:23.895Z,1.80
2019-01-08T22:12:34.799Z,1.77
2019-01-08T22:14:45.575Z,2.10
2019-01-08T22:16:56.411Z,2.07
2019-01-08T22:19:07.243Z,2.00
2019-01-08T22:21:18.096Z,1.57
2019-01-08T22:23:28.913Z,1.97
2019-01-08T22:25:39.741Z,1.80
2019-01-08T22:27:50.553Z,1.80
2019-01-08T22:30:01.390Z,1.70
2019-01-08T22:32:12.250Z,1.50
2019-01-08T22:34:23.070Z,1.30
2019-01-08T22:36:33.901Z,1.50
2019-01-08T22:38:44.709Z,1.43
2019-01-08T22:40:55.523Z,1.67
2019-01-08T22:43:06.371Z,1.30
2019-01-08T22:45:17.212Z,1.57
2019-01-08T22:47:28.027Z,1.70
2019-01-08T22:49:38.849Z,1.77
2019-01-08T22:51:49.766Z,1.57
2019-01-08T22:54:00.632Z,1.70
2019-01-08T22:56:11.524Z,1.73
2019-01-08T22:58:22.367Z,1.73
2019-01-08T23:03:05.656Z,1.50
2019-01-08T23:05:16.578Z,1.67
2019-01-08T23:07:27.471Z,1.40
2019-01-08T23:09:38.281Z,1.67
2019-01-08T23:11:49.078Z,1.50
2019-01-08T23:13:59.924Z,1.50
2019-01-08T23:16:10.716Z,1.57
2019-01-08T23:18:21.556Z,2.53
2019-01-08T23:20:32.388Z,1.80
2019-01-08T23:22:43.209Z,1.63
2019-01-08T23:24:54.075Z,1.57
2019-01-08T23:27:04.915Z,1.60
2019-01-08T23:29:15.847Z,1.90
2019-01-08T23:31:26.655Z,1.57
2019-01-08T23:33:37.460Z,1.60
2019-01-08T23:35:48.261Z,1.80
2019-01-08T23:37:59.065Z,2.10
2019-01-08T23:40:10.002Z,1.77
2019-01-08T23:42:20.833Z,1.80
2019-01-08T23:44:31.663Z,1.60
2019-01-08T23:46:42.479Z,1.90
2019-01-08T23:48:53.289Z,1.97
2019-01-08T23:51:04.205Z,1.93
2019-01-08T23:53:56.685Z,1.73
2019-01-08T23:56:07.493Z,2.20
2019-01-08T23:58:18.293Z,1.50
